KPTD

Details ICAO KPTD
Name POTSDAM MUNI
Region United States
Timezone America/New_York (UTC-4.0)
Plans Departing 2
Arriving 1
Stats Elevation 474 ft / 144 m (AMSL)
Location 44.676670° -74.948444°
Runways 1
Magnetic Variation 13.430° W
Sunrise 2018-05-25 09:23:39 UTC / 2018-05-25 05:23:39 Local
Sunset 2018-05-26 00:32:44 UTC / 2018-05-25 20:32:44 Local
Advertisement - Login to hide

Runways

ID Width Length Bearing (true) Bearing (mag) Surface Threshold Offset Overrun Length
06 60 ft / 18 m 3,701 ft / 1,128 m 44.01° 57.44° Asphalt 0 ft / 0 m 0 ft / 0 m
24 60 ft / 18 m 3,701 ft / 1,128 m 224.02° 237.45° Asphalt 0 ft / 0 m 0 ft / 0 m

Map

Weather


0- 5 10 15 20 25 30 35+ Temperature / ° C

Clouds and Precipitation
Forecast for 2018-05-25 18:00 UTC. Updated 6 hours ago

Ground ~20,000 ft ~40,000 ft Winds

METAR

KPTD 252235Z AUTO 00000KT 10SM FEW043 BKN095 SCT120 18/15 A2975 RMK AO2

TAF

Not found

Frequencies

Unicom 122.80 MHz UNICOM
Warning: Do not use this data for real-world aviation or navigation. No guarantee of current accuracy is given.